Time;durP1;ratioP1;P1;durP2;ratioP2;P2;SDS_P1;SDS_P2;PMS_P1;PMS_P2;Temp;Humidity;BMP_temperature;BMP_pressure;BME280_temperature;BME280_humidity;BME280_pressure;Samples;Min_cycle;Max_cycle;Signal;HPM_P1;HPM_P2
2022/02/18 00:00:22;;;;;;;33.08;5.75;;;;;;;6.21;67.34;96441.94;2078646;28;20200;-73
2022/02/18 00:01:23;;;;;;;31.05;5.05;;;;;;;6.13;67.82;96436.31;2080177;28;20422;-73
2022/02/18 00:02:25;;;;;;;29.45;4.10;;;;;;;6.11;67.72;96430.38;2072414;28;20198;-72
2022/02/18 00:03:27;;;;;;;37.53;5.45;;;;;;;6.08;67.43;96423.59;2071993;28;20224;-72
2022/02/18 00:04:29;;;;;;;30.70;4.07;;;;;;;6.08;66.96;96413.19;2071046;28;20233;-73
2022/02/18 00:05:30;;;;;;;25.88;4.20;;;;;;;6.26;66.29;96426.13;2068945;28;20206;-72
2022/02/18 00:06:32;;;;;;;28.80;4.57;;;;;;;6.25;66.79;96434.81;2069279;28;20305;-74
2022/02/18 00:07:34;;;;;;;28.48;5.05;;;;;;;6.32;66.39;96446.59;2072106;28;20256;-74
2022/02/18 00:08:36;;;;;;;29.23;4.35;;;;;;;6.40;65.95;96439.19;2071519;28;20216;-73
2022/02/18 00:09:37;;;;;;;29.25;5.28;;;;;;;6.23;66.17;96398.50;2071549;28;20229;-73
2022/02/18 00:10:43;;;;;;;34.35;4.43;;;;;;;6.19;66.21;96385.75;2072324;28;20193;-73
2022/02/18 00:11:44;;;;;;;21.85;4.03;;;;;;;6.23;66.64;96408.06;2072210;28;20214;-73
2022/02/18 00:12:46;;;;;;;31.13;5.47;;;;;;;6.18;66.68;96415.28;2072384;28;20205;-73
2022/02/18 00:13:53;;;;;;;25.13;3.92;;;;;;;6.37;66.01;96428.97;2072450;28;20202;-73
2022/02/18 00:14:55;;;;;;;29.25;3.80;;;;;;;6.35;65.95;96417.81;2071246;28;20236;-73
2022/02/18 00:15:56;;;;;;;23.60;4.47;;;;;;;6.33;66.21;96410.09;2072096;28;20205;-69
2022/02/18 00:16:58;;;;;;;24.25;4.43;;;;;;;6.31;66.16;96411.94;2072350;28;20207;-70
2022/02/18 00:18:02;;;;;;;33.50;5.10;;;;;;;6.35;66.09;96412.63;2072575;28;20603;-70
2022/02/18 00:19:04;;;;;;;23.98;4.53;;;;;;;6.34;66.11;96414.34;2068402;28;20269;-70
2022/02/18 00:20:07;;;;;;;26.38;4.60;;;;;;;6.28;65.98;96399.09;2069845;28;20206;-71
2022/02/18 00:21:08;;;;;;;27.58;5.07;;;;;;;6.33;66.22;96409.22;2070420;28;20241;-70
2022/02/18 00:22:10;;;;;;;35.22;4.30;;;;;;;6.34;66.02;96419.56;2078431;28;20217;-71
2022/02/18 00:23:12;;;;;;;42.55;6.57;;;;;;;6.45;65.38;96408.59;2075665;28;20194;-70
2022/02/18 00:24:14;;;;;;;32.10;4.43;;;;;;;6.46;65.48;96414.63;2071112;28;20204;-71
2022/02/18 00:25:16;;;;;;;29.60;4.38;;;;;;;6.42;65.75;96419.13;2072458;28;20260;-71
2022/02/18 00:26:17;;;;;;;26.77;5.65;;;;;;;6.35;65.47;96399.63;2072307;28;20221;-69
2022/02/18 00:27:19;;;;;;;24.63;4.20;;;;;;;6.29;65.40;96398.19;2072191;28;20547;-70
2022/02/18 00:28:22;;;;;;;34.92;4.85;;;;;;;6.35;65.17;96397.00;2072494;28;20193;-71
2022/02/18 00:29:24;;;;;;;25.65;3.90;;;;;;;6.37;65.18;96394.31;2071130;28;20226;-71
2022/02/18 00:30:26;;;;;;;32.88;5.25;;;;;;;6.59;64.46;96409.59;2069049;28;20202;-71
2022/02/18 00:31:28;;;;;;;29.30;4.40;;;;;;;6.41;64.86;96386.25;2072442;28;20198;-70
2022/02/18 00:32:29;;;;;;;28.17;5.07;;;;;;;6.53;64.98;96402.94;2071269;28;20404;-71
2022/02/18 00:33:31;;;;;;;32.17;4.47;;;;;;;6.55;64.72;96408.91;2072423;28;20506;-70
2022/02/18 00:34:32;;;;;;;19.13;4.60;;;;;;;6.51;64.47;96389.19;2071558;28;20222;-70
2022/02/18 00:35:34;;;;;;;22.00;4.18;;;;;;;6.58;64.58;96410.50;2072312;28;20216;-70
2022/02/18 00:36:35;;;;;;;23.70;4.10;;;;;;;6.47;64.35;96380.72;2070967;28;20213;-70
2022/02/18 00:37:37;;;;;;;26.60;3.92;;;;;;;6.62;64.19;96394.59;2072121;28;20198;-70
2022/02/18 00:38:38;;;;;;;26.55;3.60;;;;;;;6.50;64.36;96393.53;2072449;28;20198;-70
2022/02/18 00:39:40;;;;;;;32.20;3.85;;;;;;;6.60;64.47;96406.88;2071802;28;20564;-70
2022/02/18 00:40:42;;;;;;;21.58;4.15;;;;;;;6.61;64.41;96412.94;2070506;28;20198;-70
2022/02/18 00:41:44;;;;;;;25.02;4.90;;;;;;;6.57;64.51;96409.66;2072100;28;20191;-70
2022/02/18 00:42:45;;;;;;;31.42;4.97;;;;;;;6.54;64.89;96408.03;2072517;28;20194;-70
2022/02/18 00:43:47;;;;;;;24.25;4.78;;;;;;;6.52;64.50;96398.66;2071817;28;20198;-70
2022/02/18 00:44:48;;;;;;;24.48;4.55;;;;;;;6.53;64.59;96409.00;2071663;28;20284;-70
2022/02/18 00:45:50;;;;;;;27.95;4.22;;;;;;;6.57;64.61;96407.06;2072179;28;20224;-70
2022/02/18 00:46:52;;;;;;;39.60;3.75;;;;;;;6.58;64.67;96410.50;2072325;28;20201;-70
2022/02/18 00:47:54;;;;;;;22.20;3.65;;;;;;;6.53;64.49;96410.75;2071634;28;20310;-71
2022/02/18 00:48:55;;;;;;;28.00;4.45;;;;;;;6.44;64.91;96400.84;2071040;28;20198;-70
2022/02/18 00:49:57;;;;;;;29.15;5.00;;;;;;;6.55;64.44;96414.13;2071658;28;20522;-70
2022/02/18 00:50:58;;;;;;;29.25;3.67;;;;;;;6.56;64.85;96420.16;2071913;28;20690;-71
2022/02/18 00:52:00;;;;;;;26.17;4.38;;;;;;;6.50;64.98;96416.13;2071688;28;20206;-70
2022/02/18 00:53:02;;;;;;;26.88;4.55;;;;;;;6.61;64.35;96411.16;2071957;28;20201;-70
2022/02/18 00:54:04;;;;;;;25.13;4.90;;;;;;;6.58;64.34;96400.91;2071873;28;20202;-70
2022/02/18 00:55:07;;;;;;;28.45;3.95;;;;;;;6.65;64.25;96415.28;2071849;28;20203;-70
2022/02/18 00:56:08;;;;;;;25.20;3.83;;;;;;;6.60;64.35;96408.63;2072006;28;20207;-71
2022/02/18 00:57:10;;;;;;;30.65;5.22;;;;;;;6.62;64.52;96414.59;2072414;28;20246;-70
2022/02/18 00:58:12;;;;;;;25.95;4.00;;;;;;;6.61;64.41;96413.78;2072330;28;20197;-71
2022/02/18 00:59:13;;;;;;;20.67;3.95;;;;;;;6.53;64.16;96392.53;2071090;28;20484;-70
2022/02/18 01:00:16;;;;;;;24.67;3.55;;;;;;;6.69;64.06;96403.75;2071692;28;20656;-71
2022/02/18 01:01:17;;;;;;;28.85;5.03;;;;;;;6.64;64.03;96400.56;2072382;28;20252;-70
2022/02/18 01:02:19;;;;;;;24.38;5.03;;;;;;;6.67;64.28;96407.38;2071604;28;20654;-71
2022/02/18 01:03:21;;;;;;;24.50;2.85;;;;;;;6.66;64.60;96408.28;2071627;28;20191;-71
2022/02/18 01:04:23;;;;;;;35.95;3.88;;;;;;;6.57;64.66;96406.22;2071909;28;20225;-71
2022/02/18 01:05:24;;;;;;;25.45;5.13;;;;;;;6.58;64.36;96398.31;2064817;28;20283;-70
2022/02/18 01:06:26;;;;;;;21.63;3.72;;;;;;;6.67;63.77;96394.38;2071091;28;20208;-70
2022/02/18 01:07:28;;;;;;;31.63;5.35;;;;;;;6.75;63.70;96417.38;2072401;28;20201;-70
2022/02/18 01:08:29;;;;;;;24.33;4.78;;;;;;;6.72;63.67;96411.41;2071669;28;20194;-71
2022/02/18 01:09:31;;;;;;;23.73;4.45;;;;;;;6.73;64.37;96418.28;2071046;28;20225;-74
2022/02/18 01:10:33;;;;;;;28.80;4.57;;;;;;;6.67;64.57;96423.00;2072192;28;20201;-71
2022/02/18 01:11:34;;;;;;;28.33;4.07;;;;;;;6.73;64.03;96427.84;2072139;28;20599;-71
2022/02/18 01:12:39;;;;;;;20.00;3.22;;;;;;;6.70;64.27;96418.47;2070886;28;20206;-71
2022/02/18 01:13:41;;;;;;;22.20;3.90;;;;;;;6.72;64.22;96424.44;2071165;28;20210;-71
2022/02/18 01:14:42;;;;;;;16.45;3.95;;;;;;;6.62;64.37;96414.59;2071674;28;20641;-71
2022/02/18 01:15:44;;;;;;;19.02;3.40;;;;;;;6.72;64.09;96433.97;2071745;28;20670;-70
2022/02/18 01:16:46;;;;;;;22.67;3.80;;;;;;;6.65;63.72;96410.06;2067633;28;20199;-71
2022/02/18 01:17:48;;;;;;;22.05;4.32;;;;;;;6.74;63.63;96424.31;2068339;28;20219;-71
2022/02/18 01:18:49;;;;;;;25.08;3.88;;;;;;;6.63;63.80;96395.47;2071173;28;20198;-70
2022/02/18 01:19:51;;;;;;;22.17;3.30;;;;;;;6.83;63.39;96423.81;2071691;28;20222;-70
2022/02/18 01:20:52;;;;;;;23.58;3.75;;;;;;;6.77;63.55;96405.09;2071372;28;20207;-71
2022/02/18 01:21:54;;;;;;;31.13;4.50;;;;;;;6.88;63.55;96413.97;2071518;28;20194;-70
2022/02/18 01:22:56;;;;;;;24.30;4.07;;;;;;;6.86;63.38;96404.56;2071616;28;20536;-70
2022/02/18 01:23:57;;;;;;;22.52;3.72;;;;;;;6.70;63.95;96396.78;2071666;28;20202;-69
2022/02/18 01:24:59;;;;;;;13.57;2.97;;;;;;;6.81;64.07;96415.25;2071816;28;20336;-71
2022/02/18 01:26:02;;;;;;;21.13;4.10;;;;;;;6.80;64.12;96412.72;2071657;28;20228;-70
2022/02/18 01:27:04;;;;;;;25.67;3.35;;;;;;;6.79;64.22;96404.09;2072160;28;20206;-70
2022/02/18 01:28:06;;;;;;;25.58;3.80;;;;;;;6.76;64.28;96401.63;2069909;28;20198;-71
2022/02/18 01:29:07;;;;;;;17.98;3.47;;;;;;;6.72;64.14;96397.53;2070044;28;20202;-71
2022/02/18 01:30:11;;;;;;;14.65;4.05;;;;;;;6.63;64.40;96380.69;2072036;28;20298;-71
2022/02/18 01:31:13;;;;;;;13.95;3.38;;;;;;;6.74;64.85;96406.09;2071837;28;20766;-71
2022/02/18 01:32:15;;;;;;;23.98;4.00;;;;;;;6.77;64.43;96411.13;2070017;28;20650;-71
2022/02/18 01:33:17;;;;;;;27.25;4.40;;;;;;;6.70;64.85;96402.00;2071572;28;20198;-71
2022/02/18 01:34:18;;;;;;;21.85;3.95;;;;;;;6.70;64.49;96402.84;2071323;28;20234;-71
2022/02/18 01:35:20;;;;;;;15.70;3.67;;;;;;;6.64;64.42;96392.75;2071953;28;20215;-71
2022/02/18 01:36:23;;;;;;;22.88;3.97;;;;;;;6.77;64.39;96411.13;2071219;28;20209;-71
2022/02/18 01:37:25;;;;;;;22.13;4.00;;;;;;;6.65;64.67;96397.06;2071530;28;20207;-71
2022/02/18 01:38:27;;;;;;;10.85;3.42;;;;;;;6.70;64.75;96412.41;2071395;28;20193;-70
2022/02/18 01:39:29;;;;;;;18.67;3.67;;;;;;;6.66;65.19;96401.31;2070938;28;20221;-71
2022/02/18 01:40:30;;;;;;;12.40;2.50;;;;;;;6.77;64.58;96398.13;2071362;28;20680;-71
2022/02/18 01:41:32;;;;;;;27.17;4.35;;;;;;;6.76;64.38;96401.63;2070557;28;20210;-71
2022/02/18 01:42:34;;;;;;;19.92;4.10;;;;;;;6.66;64.80;96382.28;2063165;28;20604;-71
2022/02/18 01:43:46;;;;;;;28.55;4.80;;;;;;;6.77;64.86;96402.50;2071380;28;20198;-71
2022/02/18 01:44:49;;;;;;;20.45;4.10;;;;;;;6.79;64.70;96406.69;2071154;28;20530;-70
2022/02/18 01:45:51;;;;;;;21.13;3.90;;;;;;;6.78;64.50;96399.78;2069345;28;20203;-70
2022/02/18 01:46:52;;;;;;;23.70;4.90;;;;;;;6.81;64.64;96404.84;2070612;28;20206;-71
2022/02/18 01:47:54;;;;;;;16.85;3.35;;;;;;;6.83;64.50;96410.78;2069816;28;20652;-70
2022/02/18 01:48:55;;;;;;;23.20;4.05;;;;;;;6.85;64.70;96421.13;2071995;28;20223;-70
2022/02/18 01:49:58;;;;;;;15.73;4.18;;;;;;;6.83;64.65;96415.16;2070552;28;20773;-71
2022/02/18 01:51:00;;;;;;;23.05;4.47;;;;;;;6.82;65.17;96419.53;2071005;28;20209;-71
2022/02/18 01:52:04;;;;;;;18.90;3.40;;;;;;;6.80;65.20;96418.78;2070915;28;20193;-70
2022/02/18 01:53:11;;;;;;;22.52;4.05;;;;;;;6.78;65.21;96415.41;2071694;28;20197;-70
2022/02/18 01:54:12;;;;;;;31.58;4.88;;;;;;;6.73;65.50;96418.28;2070375;28;20203;-71
2022/02/18 01:55:15;;;;;;;28.35;4.35;;;;;;;6.77;65.34;96423.31;2070427;28;20204;-71
2022/02/18 01:56:19;;;;;;;24.50;3.70;;;;;;;6.75;65.45;96420.81;2071309;28;20198;-71
2022/02/18 01:57:21;;;;;;;36.78;4.78;;;;;;;6.65;65.58;96401.44;2070671;28;20205;-71
2022/02/18 01:58:24;;;;;;;33.13;5.95;;;;;;;6.74;65.87;96411.28;2071659;28;20202;-71
2022/02/18 01:59:28;;;;;;;24.55;3.75;;;;;;;6.75;65.46;96405.19;2070647;28;20226;-70
2022/02/18 02:00:32;;;;;;;24.20;4.50;;;;;;;6.75;65.72;96412.16;2070781;28;20270;-71
2022/02/18 02:01:33;;;;;;;33.75;5.60;;;;;;;6.69;66.27;96395.13;2069347;28;20522;-71
2022/02/18 02:02:35;;;;;;;35.00;5.22;;;;;;;6.59;65.87;96383.56;2071654;28;20248;-71
2022/02/18 02:03:37;;;;;;;17.65;4.55;;;;;;;6.67;66.16;96390.00;2071177;28;20194;-71
2022/02/18 02:04:39;;;;;;;27.40;5.47;;;;;;;6.39;65.90;96337.81;2068979;28;20228;-70
2022/02/18 02:05:40;;;;;;;15.13;4.93;;;;;;;6.67;66.03;96396.97;2071588;28;20214;-70
2022/02/18 02:06:42;;;;;;;21.90;4.13;;;;;;;6.53;65.94;96369.13;2071272;28;20552;-71
2022/02/18 02:07:47;;;;;;;19.58;3.92;;;;;;;6.52;65.96;96367.44;2071079;28;20608;-71
2022/02/18 02:08:49;;;;;;;24.90;3.05;;;;;;;6.52;66.16;96365.66;2069502;28;20205;-71
2022/02/18 02:09:50;;;;;;;21.50;3.22;;;;;;;6.65;65.82;96380.59;2073737;28;20235;-70
2022/02/18 02:10:52;;;;;;;36.38;4.10;;;;;;;6.72;65.99;96388.00;2074865;28;20212;-71
2022/02/18 02:11:53;;;;;;;35.65;3.40;;;;;;;6.69;66.04;96379.50;2071636;28;20196;-70
2022/02/18 02:12:55;;;;;;;15.95;3.20;;;;;;;6.70;65.92;96375.97;2071538;28;20217;-71
2022/02/18 02:14:03;;;;;;;40.60;5.65;;;;;;;6.75;65.88;96388.75;2071759;28;20213;-70
2022/02/18 02:15:10;;;;;;;16.52;3.95;;;;;;;6.72;66.04;96384.53;2071219;28;20584;-70
2022/02/18 02:16:14;;;;;;;17.08;3.05;;;;;;;6.60;66.10;96374.81;2071733;28;20209;-71
2022/02/18 02:17:16;;;;;;;16.55;3.55;;;;;;;6.72;65.85;96392.31;2070054;28;20413;-70
2022/02/18 02:18:17;;;;;;;19.35;3.78;;;;;;;6.72;65.82;96385.38;2071378;28;20210;-71
2022/02/18 02:19:19;;;;;;;25.98;4.72;;;;;;;6.69;66.12;96389.91;2069057;28;20222;-70
2022/02/18 02:20:21;;;;;;;18.70;4.22;;;;;;;6.60;65.98;96365.22;2070810;28;20596;-71
2022/02/18 02:21:22;;;;;;;32.50;5.20;;;;;;;6.66;65.66;96369.25;2070462;28;20736;-71
2022/02/18 02:22:27;;;;;;;15.25;3.33;;;;;;;6.62;66.09;96368.59;2071644;28;20194;-71
2022/02/18 02:23:29;;;;;;;31.30;3.88;;;;;;;6.65;65.89;96370.19;2071479;28;20201;-70
2022/02/18 02:24:32;;;;;;;19.27;2.90;;;;;;;6.66;66.37;96374.47;2071106;28;20218;-71
2022/02/18 02:25:37;;;;;;;15.15;4.38;;;;;;;6.49;66.33;96344.22;2071815;28;20204;-70
2022/02/18 02:26:42;;;;;;;15.45;3.22;;;;;;;6.64;66.28;96364.13;2070499;28;20202;-71
2022/02/18 02:27:43;;;;;;;17.77;4.03;;;;;;;6.67;66.03;96369.19;2071134;28;20548;-70
2022/02/18 02:28:45;;;;;;;40.15;4.40;;;;;;;6.66;66.02;96359.69;2071117;28;20286;-71
2022/02/18 02:29:48;;;;;;;18.77;3.70;;;;;;;6.61;66.43;96358.28;2070895;28;20229;-71
2022/02/18 02:30:50;;;;;;;26.10;5.03;;;;;;;6.60;66.64;96357.44;2067751;28;20190;-71
2022/02/18 02:31:51;;;;;;;22.40;4.47;;;;;;;6.64;66.28;96355.50;2067261;28;20552;-71
2022/02/18 02:32:53;;;;;;;14.52;3.70;;;;;;;6.66;66.22;96343.22;2074479;28;20262;-69
2022/02/18 02:33:54;;;;;;;30.88;3.88;;;;;;;6.63;66.30;96343.44;2075128;28;20204;-70
2022/02/18 02:34:56;;;;;;;17.15;3.42;;;;;;;6.50;66.71;96332.88;2070276;28;20226;-70
2022/02/18 02:35:57;;;;;;;19.20;4.88;;;;;;;6.48;66.48;96330.34;2071676;28;20688;-70
2022/02/18 02:36:59;;;;;;;19.90;3.60;;;;;;;6.56;66.53;96335.13;2071180;28;20203;-70
2022/02/18 02:38:02;;;;;;;9.57;2.28;;;;;;;6.58;66.71;96345.44;2071421;28;20209;-71
2022/02/18 02:39:05;;;;;;;27.65;4.38;;;;;;;6.59;66.37;96347.13;2069467;28;20198;-70
2022/02/18 02:40:06;;;;;;;18.67;4.15;;;;;;;6.58;66.34;96332.44;2071067;28;20209;-70
2022/02/18 02:41:08;;;;;;;14.68;3.03;;;;;;;6.56;66.38;96340.31;2070670;28;20202;-71
2022/02/18 02:42:10;;;;;;;23.02;3.88;;;;;;;6.56;66.67;96345.53;2061646;28;20202;-71
2022/02/18 02:43:12;;;;;;;23.17;3.70;;;;;;;6.59;66.32;96352.34;2070809;28;20678;-71
2022/02/18 02:44:14;;;;;;;29.30;4.03;;;;;;;6.57;66.17;96334.19;2070067;28;20692;-71
2022/02/18 02:45:16;;;;;;;19.98;3.60;;;;;;;6.56;66.47;96344.69;2070482;28;20203;-71
2022/02/18 02:46:20;;;;;;;17.42;2.95;;;;;;;6.44;66.92;96328.00;2071036;28;20197;-71
2022/02/18 02:47:21;;;;;;;23.40;3.17;;;;;;;6.45;67.18;96329.66;2071057;28;20205;-72
2022/02/18 02:48:23;;;;;;;24.73;3.75;;;;;;;6.42;67.36;96337.66;2070874;28;20205;-71
2022/02/18 02:49:25;;;;;;;18.77;3.63;;;;;;;6.46;67.19;96337.41;2070826;28;20592;-72
2022/02/18 02:50:27;;;;;;;20.63;3.95;;;;;;;6.46;67.24;96336.56;2071254;28;20202;-71
2022/02/18 02:51:28;;;;;;;20.05;4.45;;;;;;;6.44;67.06;96318.44;2069663;28;20201;-74
2022/02/18 02:52:30;;;;;;;17.20;3.70;;;;;;;6.45;67.08;96325.34;2071031;28;20205;-74
2022/02/18 02:53:33;;;;;;;22.13;3.70;;;;;;;6.45;67.25;96327.94;2073167;28;20207;-73
2022/02/18 02:54:34;;;;;;;15.60;3.63;;;;;;;6.41;66.91;96297.81;2072397;28;20225;-74
2022/02/18 02:55:36;;;;;;;20.95;3.50;;;;;;;6.45;67.04;96307.13;2072441;28;20204;-74
2022/02/18 02:56:37;;;;;;;20.85;4.30;;;;;;;6.50;66.94;96323.28;2072536;28;20202;-74
2022/02/18 02:57:40;;;;;;;17.88;4.03;;;;;;;6.44;67.13;96307.19;2073025;28;20232;-73
2022/02/18 02:58:42;;;;;;;24.50;3.22;;;;;;;6.39;67.24;96312.69;2071540;28;20717;-71
2022/02/18 02:59:44;;;;;;;18.38;3.00;;;;;;;6.38;67.20;96308.38;2067806;28;20219;-71
2022/02/18 03:00:46;;;;;;;14.93;3.22;;;;;;;6.38;67.52;96318.78;2069074;28;20204;-72
2022/02/18 03:01:48;;;;;;;28.75;4.18;;;;;;;6.27;67.64;96296.00;2069950;28;20208;-71
2022/02/18 03:02:49;;;;;;;32.10;3.50;;;;;;;6.32;67.70;96312.16;2072577;28;20198;-72
2022/02/18 03:03:51;;;;;;;23.15;3.25;;;;;;;6.32;67.80;96309.56;2073110;28;20203;-71
2022/02/18 03:04:53;;;;;;;13.55;2.70;;;;;;;6.26;67.16;96288.28;2077000;28;20743;-72
2022/02/18 03:05:54;;;;;;;14.48;3.00;;;;;;;6.32;67.78;96308.72;2076394;28;20204;-72
2022/02/18 03:06:56;;;;;;;23.42;3.60;;;;;;;6.28;67.81;96297.66;2070885;28;20197;-71
2022/02/18 03:08:17;;;;;;;26.25;3.83;;;;;;;6.26;67.89;96294.31;2072847;28;20217;-72
2022/02/18 03:09:19;;;;;;;13.10;3.40;;;;;;;6.16;67.89;96282.75;2072228;28;20242;-71
2022/02/18 03:10:21;;;;;;;19.45;3.38;;;;;;;6.35;67.46;96303.38;2072541;28;20200;-71
2022/02/18 03:11:24;;;;;;;16.17;3.80;;;;;;;6.24;67.77;96284.94;2072979;28;20202;-72
2022/02/18 03:12:26;;;;;;;15.00;4.28;;;;;;;6.19;67.96;96282.56;2068893;28;20554;-71
2022/02/18 03:13:30;;;;;;;22.88;2.97;;;;;;;6.30;67.84;96285.41;2069449;28;20226;-71
2022/02/18 03:14:31;;;;;;;21.02;3.40;;;;;;;6.33;67.83;96284.38;2070091;28;20218;-71
2022/02/18 03:15:33;;;;;;;24.83;3.50;;;;;;;6.30;67.97;96281.97;2071766;28;20217;-72
2022/02/18 03:16:34;;;;;;;13.05;2.95;;;;;;;6.15;67.97;96260.25;2077045;28;20210;-71
2022/02/18 03:17:36;;;;;;;10.52;3.55;;;;;;;6.16;68.37;96261.13;2076380;28;20695;-72
2022/02/18 03:18:38;;;;;;;22.40;4.38;;;;;;;6.09;68.43;96258.00;2071783;28;20612;-71
2022/02/18 03:19:39;;;;;;;27.20;4.35;;;;;;;6.27;68.32;96289.94;2072415;28;20253;-72
2022/02/18 03:20:41;;;;;;;21.10;3.75;;;;;;;6.29;68.19;96275.09;2072003;28;20201;-71
2022/02/18 03:21:42;;;;;;;23.33;3.63;;;;;;;6.37;67.75;96278.13;2068001;28;20211;-72
2022/02/18 03:22:44;;;;;;;25.55;3.42;;;;;;;6.33;67.61;96264.44;2074430;28;20198;-71
2022/02/18 03:23:49;;;;;;;22.15;4.25;;;;;;;6.41;67.67;96273.53;2072673;28;20197;-71
2022/02/18 03:24:51;;;;;;;27.65;3.47;;;;;;;6.31;67.35;96245.50;2071921;28;20276;-72
2022/02/18 03:25:52;;;;;;;21.77;3.75;;;;;;;6.30;67.47;96259.41;2072534;28;20212;-71
2022/02/18 03:26:56;;;;;;;27.67;3.55;;;;;;;6.44;67.27;96266.41;2072302;28;20730;-71
2022/02/18 03:27:58;;;;;;;14.27;2.90;;;;;;;6.44;67.37;96263.81;2072451;28;20671;-71
2022/02/18 03:28:59;;;;;;;19.98;2.78;;;;;;;6.47;67.13;96255.84;2072616;28;20197;-70
2022/02/18 03:30:02;;;;;;;19.63;3.47;;;;;;;6.44;67.23;96253.41;2072933;28;20226;-71
2022/02/18 03:31:03;;;;;;;24.13;3.13;;;;;;;6.43;67.03;96243.94;2070047;28;20268;-71
2022/02/18 03:32:06;;;;;;;22.33;3.45;;;;;;;6.32;67.37;96226.34;2070947;28;20205;-71
2022/02/18 03:33:10;;;;;;;27.13;3.97;;;;;;;6.35;67.47;96225.34;2072247;28;20202;-71
2022/02/18 03:34:13;;;;;;;22.88;3.15;;;;;;;6.48;67.06;96238.47;2070170;28;20218;-71
2022/02/18 03:35:14;;;;;;;16.60;3.78;;;;;;;6.48;66.97;96234.09;2070123;28;20536;-71
2022/02/18 03:36:16;;;;;;;30.63;4.82;;;;;;;6.44;67.02;96231.75;2071206;28;20733;-71
2022/02/18 03:37:18;;;;;;;14.48;3.78;;;;;;;6.44;66.86;96234.38;2072654;28;20700;-71
2022/02/18 03:38:19;;;;;;;19.77;4.38;;;;;;;6.51;66.87;96246.94;2072336;28;20688;-70
2022/02/18 03:39:21;;;;;;;13.85;2.95;;;;;;;6.29;67.19;96217.88;2072308;28;20222;-71
2022/02/18 03:40:23;;;;;;;15.32;2.75;;;;;;;6.40;67.13;96249.31;2072532;28;20221;-71
2022/02/18 03:41:27;;;;;;;19.10;3.47;;;;;;;6.41;67.25;96256.19;2072210;28;20649;-71
2022/02/18 03:42:29;;;;;;;21.88;3.25;;;;;;;6.44;67.12;96256.00;2074202;28;20607;-71
2022/02/18 03:43:30;;;;;;;28.77;3.42;;;;;;;6.39;67.10;96244.19;2071709;28;20201;-71
2022/02/18 03:44:34;;;;;;;18.20;3.50;;;;;;;6.36;67.14;96245.22;2071906;28;20223;-71
2022/02/18 03:45:36;;;;;;;17.50;2.90;;;;;;;6.32;67.27;96244.53;2071686;28;20202;-71
2022/02/18 03:46:37;;;;;;;23.42;2.92;;;;;;;6.35;67.37;96261.75;2072716;28;20202;-71
2022/02/18 03:47:39;;;;;;;13.85;3.45;;;;;;;6.31;67.64;96265.44;2072697;28;20209;-71
2022/02/18 03:48:40;;;;;;;21.70;3.15;;;;;;;6.16;67.89;96251.56;2070239;28;20205;-71
2022/02/18 03:49:42;;;;;;;23.42;4.15;;;;;;;6.26;68.02;96265.69;2071190;28;20744;-71
2022/02/18 03:50:44;;;;;;;22.65;3.67;;;;;;;6.25;67.95;96263.19;2072488;28;20237;-71
2022/02/18 03:51:46;;;;;;;17.27;2.65;;;;;;;6.22;68.17;96258.19;2071940;28;20256;-71
2022/02/18 03:52:51;;;;;;;28.02;4.05;;;;;;;6.17;67.91;96242.81;2071536;28;20198;-71
2022/02/18 03:53:53;;;;;;;19.77;3.42;;;;;;;6.16;68.38;96240.31;2072573;28;20216;-72
2022/02/18 03:54:55;;;;;;;27.48;2.47;;;;;;;6.11;68.46;96244.00;2071236;28;20221;-71
2022/02/18 03:55:59;;;;;;;21.80;3.10;;;;;;;6.11;68.78;96248.38;2071998;28;20211;-71
2022/02/18 03:57:01;;;;;;;27.63;3.30;;;;;;;6.10;68.48;96244.94;2072121;28;20199;-71
2022/02/18 03:58:03;;;;;;;16.63;3.00;;;;;;;6.10;68.35;96237.13;2072647;28;20199;-71
2022/02/18 03:59:04;;;;;;;14.25;3.05;;;;;;;6.26;67.84;96238.88;2072344;28;20226;-71
2022/02/18 04:00:10;;;;;;;12.80;2.95;;;;;;;6.18;68.13;96223.69;2072718;28;20200;-71
2022/02/18 04:01:12;;;;;;;24.45;3.65;;;;;;;6.19;68.20;96232.34;2070921;28;20198;-71
2022/02/18 04:02:15;;;;;;;18.75;4.43;;;;;;;6.19;68.17;96233.16;2071985;28;20743;-71
2022/02/18 04:03:16;;;;;;;19.60;3.50;;;;;;;6.18;68.47;96238.47;2070927;28;20278;-71
2022/02/18 04:04:18;;;;;;;13.82;3.08;;;;;;;6.14;68.57;96230.00;2069433;28;20242;-71
2022/02/18 04:05:20;;;;;;;16.50;2.70;;;;;;;6.02;68.55;96217.69;2070079;28;20202;-72
2022/02/18 04:06:21;;;;;;;18.75;3.30;;;;;;;6.06;68.56;96225.25;2070498;28;20200;-71
2022/02/18 04:07:23;;;;;;;16.40;2.92;;;;;;;5.92;68.60;96206.97;2071850;28;20677;-71
2022/02/18 04:08:25;;;;;;;18.33;4.68;;;;;;;6.01;68.62;96219.44;2072141;28;20644;-71
2022/02/18 04:09:26;;;;;;;16.63;2.97;;;;;;;6.00;68.72;96229.94;2071740;28;20231;-71
2022/02/18 04:10:28;;;;;;;13.73;2.80;;;;;;;5.80;68.49;96195.50;2072522;28;20212;-71
2022/02/18 04:11:29;;;;;;;15.70;2.67;;;;;;;6.07;68.69;96242.50;2070780;28;20205;-71
2022/02/18 04:12:31;;;;;;;23.00;3.60;;;;;;;6.07;68.62;96233.88;2072458;28;20228;-71
2022/02/18 04:13:32;;;;;;;11.88;2.75;;;;;;;6.09;68.70;96245.84;2070656;28;20676;-72
2022/02/18 04:14:34;;;;;;;9.75;3.10;;;;;;;6.10;68.71;96247.53;2071899;28;20250;-72
2022/02/18 04:15:36;;;;;;;17.63;3.88;;;;;;;6.14;68.65;96237.81;2071010;28;20199;-72
2022/02/18 04:16:37;;;;;;;23.60;3.05;;;;;;;6.05;68.93;96226.16;2071929;28;20640;-72
2022/02/18 04:17:39;;;;;;;20.75;2.95;;;;;;;6.13;68.73;96246.50;2072436;28;20229;-72
2022/02/18 04:18:40;;;;;;;14.40;2.90;;;;;;;6.00;68.60;96219.53;2072581;28;20211;-72
2022/02/18 04:19:42;;;;;;;14.43;2.95;;;;;;;6.02;68.61;96222.88;2071518;28;20235;-71
2022/02/18 04:21:04;;;;;;;17.85;3.58;;;;;;;6.14;68.80;96230.00;2070222;28;20766;-71
2022/02/18 04:22:05;;;;;;;17.17;2.45;;;;;;;6.04;68.89;96211.50;2070862;28;20694;-72
2022/02/18 04:23:07;;;;;;;21.25;3.15;;;;;;;6.13;68.66;96221.38;2071484;28;20206;-72
2022/02/18 04:24:09;;;;;;;14.80;2.50;;;;;;;6.07;68.84;96221.69;2071642;28;20198;-72
2022/02/18 04:25:10;;;;;;;16.85;1.90;;;;;;;6.07;68.91;96208.69;2071963;28;20202;-72
2022/02/18 04:26:12;;;;;;;13.52;2.63;;;;;;;5.99;68.85;96197.06;2072421;28;20491;-72
2022/02/18 04:27:13;;;;;;;18.42;2.60;;;;;;;6.07;68.94;96216.50;2072538;28;20768;-72
2022/02/18 04:28:17;;;;;;;18.15;3.08;;;;;;;6.10;68.77;96216.34;2072349;28;20197;-72
2022/02/18 04:29:18;;;;;;;22.27;3.63;;;;;;;6.05;68.39;96194.13;2072003;28;20249;-72
2022/02/18 04:30:21;;;;;;;25.67;3.47;;;;;;;6.08;68.64;96205.19;2072412;28;20206;-72
2022/02/18 04:31:22;;;;;;;8.07;2.30;;;;;;;6.20;68.25;96198.44;2070582;28;20574;-72
2022/02/18 04:32:24;;;;;;;19.27;3.70;;;;;;;6.28;68.18;96208.41;2071865;28;20465;-72
2022/02/18 04:33:25;;;;;;;18.88;2.67;;;;;;;6.26;68.47;96211.09;2071242;28;20664;-72
2022/02/18 04:34:27;;;;;;;25.73;4.85;;;;;;;6.22;68.38;96206.16;2071451;28;20222;-72
2022/02/18 04:35:29;;;;;;;19.75;2.80;;;;;;;6.07;68.83;96190.50;2071291;28;20202;-73
2022/02/18 04:36:30;;;;;;;18.95;3.10;;;;;;;6.08;68.69;96194.78;2072315;28;20194;-72
2022/02/18 04:37:32;;;;;;;20.00;3.85;;;;;;;6.13;69.02;96204.91;2072004;28;20204;-72
2022/02/18 04:38:33;;;;;;;11.43;3.55;;;;;;;6.08;69.14;96207.78;2072513;28;20202;-72
2022/02/18 04:39:35;;;;;;;13.55;2.60;;;;;;;6.04;69.26;96201.09;2071409;28;20226;-72
2022/02/18 04:40:37;;;;;;;18.38;3.05;;;;;;;6.12;68.83;96198.88;2072402;28;20193;-73
2022/02/18 04:41:39;;;;;;;14.07;1.77;;;;;;;6.10;68.63;96174.75;2071693;28;20506;-72
2022/02/18 04:42:42;;;;;;;21.38;2.72;;;;;;;6.17;68.11;96180.41;2063863;28;20231;-72
2022/02/18 04:43:43;;;;;;;14.40;3.00;;;;;;;6.13;68.88;96191.91;2071784;28;20199;-73
2022/02/18 04:44:45;;;;;;;21.15;3.08;;;;;;;6.07;68.79;96177.50;2071590;28;20237;-73
2022/02/18 04:45:47;;;;;;;20.08;4.00;;;;;;;6.16;68.66;96191.75;2071814;28;20545;-72
2022/02/18 04:46:48;;;;;;;13.23;2.72;;;;;;;6.08;68.93;96187.00;2072256;28;20210;-72
2022/02/18 04:47:55;;;;;;;11.35;2.55;;;;;;;6.09;69.33;96188.66;2072105;28;20661;-72
2022/02/18 04:48:57;;;;;;;20.52;3.40;;;;;;;6.08;68.80;96165.38;2071866;28;20823;-73
2022/02/18 04:49:59;;;;;;;9.77;2.75;;;;;;;6.15;68.98;96200.47;2071871;28;20197;-73
2022/02/18 04:51:00;;;;;;;21.73;3.50;;;;;;;6.13;69.49;96190.19;2070809;28;20199;-72
2022/02/18 04:52:10;;;;;;;9.68;2.50;;;;;;;6.02;69.65;96176.94;2064291;28;20243;-72
2022/02/18 04:53:11;;;;;;;19.67;3.20;;;;;;;6.11;69.73;96192.00;2071369;28;20205;-73